Time;durP1;ratioP1;P1;durP2;ratioP2;P2;SDS_P1;SDS_P2;PMS_P1;PMS_P2;Temp;Humidity;BMP_temperature;BMP_pressure;BME280_temperature;BME280_humidity;BME280_pressure;Samples;Min_cycle;Max_cycle;Signal;HPM_P1;HPM_P2
2024/04/15 00:00:19;;;;;;;9.23;4.93;;;21.00;99.90;;;;;;5382296;26;20007;-68
2024/04/15 00:02:46;;;;;;;7.03;4.53;;;21.00;99.90;;;;;;5392625;26;19999;-68
2024/04/15 00:05:14;;;;;;;7.07;5.13;;;21.00;99.90;;;;;;5393697;26;20072;-67
2024/04/15 00:07:42;;;;;;;9.07;5.47;;;21.10;99.90;;;;;;5379482;26;20928;-68
2024/04/15 00:10:09;;;;;;;13.50;6.32;;;21.20;99.90;;;;;;5392800;26;20474;-68
2024/04/15 00:12:36;;;;;;;9.60;5.38;;;21.40;99.90;;;;;;5380914;26;20098;-68
2024/04/15 00:15:04;;;;;;;6.82;5.10;;;21.50;99.90;;;;;;5389544;26;20008;-68
2024/04/15 00:17:31;;;;;;;8.23;5.20;;;21.60;99.90;;;;;;5393952;26;19999;-68
2024/04/15 00:19:59;;;;;;;9.98;5.82;;;21.70;99.90;;;;;;5375829;26;20015;-67
2024/04/15 00:22:26;;;;;;;6.18;4.75;;;21.60;99.90;;;;;;5384520;26;20006;-68
2024/04/15 00:24:53;;;;;;;6.60;4.57;;;21.70;99.90;;;;;;5374502;26;20134;-67
2024/04/15 00:27:21;;;;;;;7.45;4.97;;;21.70;99.90;;;;;;5384297;26;19991;-67
2024/04/15 00:29:48;;;;;;;9.45;4.75;;;21.70;99.90;;;;;;5381328;26;20012;-65
2024/04/15 00:32:15;;;;;;;8.10;4.90;;;21.80;99.90;;;;;;5382735;26;20028;-66
2024/04/15 00:34:42;;;;;;;10.43;4.80;;;21.90;99.90;;;;;;5379758;26;19995;-67
2024/04/15 00:37:10;;;;;;;10.23;4.80;;;21.90;99.90;;;;;;5384586;26;20418;-67
2024/04/15 00:39:37;;;;;;;8.68;4.45;;;21.90;99.90;;;;;;5386307;26;20031;-69
2024/04/15 00:42:05;;;;;;;6.22;4.60;;;22.10;99.90;;;;;;5381127;26;20008;-68
2024/04/15 00:44:36;;;;;;;6.38;4.90;;;22.20;99.90;;;;;;5385706;26;20076;-66
2024/04/15 00:47:06;;;;;;;7.80;4.40;;;22.40;99.90;;;;;;5384074;26;20010;-67
2024/04/15 00:49:34;;;;;;;7.50;4.82;;;22.50;99.90;;;;;;5381329;26;19999;-67
2024/04/15 00:52:03;;;;;;;9.02;4.38;;;22.60;99.90;;;;;;5390668;26;19996;-67
2024/04/15 00:54:32;;;;;;;7.55;4.28;;;22.60;99.90;;;;;;5414305;26;19996;-67
2024/04/15 00:57:01;;;;;;;9.82;5.00;;;22.80;99.90;;;;;;5388639;26;20932;-67
2024/04/15 00:59:30;;;;;;;8.95;4.57;;;22.90;99.90;;;;;;5386342;26;20061;-69
2024/04/15 01:01:59;;;;;;;6.22;4.15;;;23.00;99.90;;;;;;5386890;26;19996;-68
2024/04/15 01:04:26;;;;;;;6.88;5.00;;;23.10;99.90;;;;;;5389224;26;20011;-67
2024/04/15 01:06:54;;;;;;;7.30;4.35;;;23.20;99.90;;;;;;5379983;26;20013;-67
2024/04/15 01:09:23;;;;;;;8.75;4.90;;;23.40;99.90;;;;;;5381361;26;20448;-66
2024/04/15 01:11:50;;;;;;;8.85;4.60;;;23.40;99.90;;;;;;5388227;26;19999;-67
2024/04/15 01:14:19;;;;;;;6.68;4.82;;;23.50;99.90;;;;;;5390150;26;20801;-67
2024/04/15 01:16:46;;;;;;;7.85;4.20;;;23.70;99.90;;;;;;5419999;26;20286;-68
2024/04/15 01:19:13;;;;;;;6.43;4.65;;;23.80;99.90;;;;;;5382827;26;20000;-66
2024/04/15 01:21:41;;;;;;;6.65;4.60;;;23.90;99.90;;;;;;5390489;26;19999;-69
2024/04/15 01:24:09;;;;;;;8.27;4.45;;;24.00;99.90;;;;;;5388651;26;20023;-68
2024/04/15 01:26:36;;;;;;;8.35;4.68;;;24.10;99.90;;;;;;5383932;26;20068;-67
2024/04/15 01:29:04;;;;;;;6.80;3.60;;;24.20;99.90;;;;;;5380922;26;20013;-67
2024/04/15 01:31:31;;;;;;;7.70;4.10;;;24.30;99.90;;;;;;5372015;26;20004;-66
2024/04/15 01:33:58;;;;;;;10.38;5.15;;;24.60;99.90;;;;;;5385393;26;20004;-63
2024/04/15 01:36:25;;;;;;;6.50;4.40;;;24.60;99.90;;;;;;5386529;26;20003;-62
2024/04/15 01:38:53;;;;;;;6.90;4.55;;;24.90;99.90;;;;;;5392395;26;20004;-66
2024/04/15 01:41:20;;;;;;;7.05;3.95;;;24.90;99.90;;;;;;5384207;26;20462;-63
2024/04/15 01:43:47;;;;;;;7.75;3.58;;;25.10;99.90;;;;;;5385686;26;20000;-64
2024/04/15 01:46:14;;;;;;;7.90;4.25;;;25.30;99.90;;;;;;5378670;26;19999;-63
2024/04/15 01:48:42;;;;;;;6.57;4.45;;;25.60;99.90;;;;;;5377465;26;20483;-62
2024/04/15 01:51:09;;;;;;;6.25;4.47;;;25.90;99.90;;;;;;5375765;26;19995;-61
2024/04/15 01:53:36;;;;;;;9.40;4.55;;;25.90;99.90;;;;;;5376811;26;20015;-63
2024/04/15 01:56:05;;;;;;;8.60;4.07;;;25.90;99.60;;;;;;5378119;26;20124;-61
2024/04/15 01:58:33;;;;;;;10.85;4.38;;;25.90;99.70;;;;;;5381600;26;20004;-64
2024/04/15 02:01:07;;;;;;;5.93;3.83;;;26.00;99.90;;;;;;5379913;26;20040;-63
2024/04/15 02:03:34;;;;;;;7.13;4.25;;;26.10;99.60;;;;;;5383675;26;20078;-64
2024/04/15 02:06:01;;;;;;;5.93;4.00;;;26.00;98.40;;;;;;5397648;26;20014;-66
2024/04/15 02:08:29;;;;;;;8.95;4.65;;;25.90;98.40;;;;;;5376739;26;20000;-63
2024/04/15 02:10:57;;;;;;;8.35;4.50;;;25.90;99.30;;;;;;5384676;26;20000;-65
2024/04/15 02:13:24;;;;;;;8.25;4.50;;;26.00;98.60;;;;;;5390062;26;20014;-66
2024/04/15 02:15:51;;;;;;;7.45;3.85;;;26.10;98.30;;;;;;5396730;26;20040;-64
2024/04/15 02:18:18;;;;;;;8.45;4.22;;;26.30;98.20;;;;;;5395105;26;19996;-64
2024/04/15 02:20:46;;;;;;;9.05;4.75;;;26.40;97.70;;;;;;5401681;26;20077;-66
2024/04/15 02:23:14;;;;;;;7.50;3.65;;;26.40;96.90;;;;;;5385828;26;20074;-64
2024/04/15 02:25:43;;;;;;;7.88;5.00;;;26.40;96.90;;;;;;5388594;26;20348;-62
2024/04/15 02:28:10;;;;;;;7.55;4.60;;;26.60;97.10;;;;;;5394799;26;20003;-64
2024/04/15 02:30:37;;;;;;;9.27;4.15;;;26.80;97.30;;;;;;5398409;26;19996;-64
2024/04/15 02:33:05;;;;;;;6.80;3.83;;;26.80;95.80;;;;;;5397660;26;20015;-64
2024/04/15 02:35:32;;;;;;;10.65;4.22;;;26.90;95.60;;;;;;5394213;26;19999;-64
2024/04/15 02:37:59;;;;;;;6.07;4.57;;;27.20;94.60;;;;;;5398989;26;20345;-61
2024/04/15 02:40:27;;;;;;;7.90;4.28;;;27.60;94.70;;;;;;5395871;26;20015;-62
2024/04/15 02:42:55;;;;;;;6.13;4.28;;;28.50;93.80;;;;;;5398151;26;20003;-65
2024/04/15 02:45:22;;;;;;;9.43;4.38;;;29.30;92.10;;;;;;5398198;26;20004;-66
2024/04/15 02:47:49;;;;;;;8.43;3.90;;;30.40;91.10;;;;;;5393651;26;20922;-64
2024/04/15 02:50:17;;;;;;;10.43;4.35;;;31.30;87.90;;;;;;5396788;26;20349;-65
2024/04/15 02:52:44;;;;;;;10.40;4.43;;;32.50;85.80;;;;;;5395833;26;20076;-66
2024/04/15 02:55:11;;;;;;;10.25;4.15;;;33.60;81.10;;;;;;5395502;26;20003;-65
2024/04/15 02:57:38;;;;;;;7.63;4.13;;;34.40;77.20;;;;;;5362556;26;20004;-68
2024/04/15 03:00:06;;;;;;;10.38;4.45;;;35.50;75.20;;;;;;5362940;26;20535;-64
2024/04/15 03:02:34;;;;;;;6.38;4.07;;;35.90;71.60;;;;;;5362960;26;20351;-63
2024/04/15 03:05:01;;;;;;;6.35;4.05;;;36.20;69.90;;;;;;5397553;26;20010;-64
2024/04/15 03:07:28;;;;;;;12.13;4.20;;;36.50;69.60;;;;;;5399052;26;20006;-64
2024/04/15 03:09:57;;;;;;;6.82;3.67;;;36.30;68.10;;;;;;5394699;26;20213;-63
2024/04/15 03:12:24;;;;;;;8.50;4.63;;;36.50;68.00;;;;;;5397402;26;20000;-62
2024/04/15 03:14:53;;;;;;;6.75;4.22;;;37.10;66.90;;;;;;5394735;26;20025;-63
2024/04/15 03:17:20;;;;;;;8.50;3.97;;;37.20;66.80;;;;;;5397558;26;20027;-66
2024/04/15 03:19:51;;;;;;;6.13;4.15;;;36.90;66.40;;;;;;5367227;26;20076;-65
2024/04/15 03:22:18;;;;;;;8.55;4.68;;;37.20;65.00;;;;;;5383558;26;20000;-64
2024/04/15 03:24:49;;;;;;;8.23;4.57;;;37.20;64.90;;;;;;5393384;26;20778;-64
2024/04/15 03:27:17;;;;;;;9.73;4.47;;;37.30;64.20;;;;;;5394641;26;20010;-65
2024/04/15 03:29:45;;;;;;;10.07;4.82;;;37.00;64.10;;;;;;5394337;26;20421;-64
2024/04/15 03:32:12;;;;;;;7.32;3.95;;;37.40;62.80;;;;;;5398127;26;19996;-63
2024/04/15 03:34:39;;;;;;;6.30;4.10;;;37.60;62.40;;;;;;5388728;26;20000;-65
2024/04/15 03:37:06;;;;;;;8.32;5.15;;;37.40;61.10;;;;;;5378586;26;20074;-67
2024/04/15 03:39:34;;;;;;;9.85;5.15;;;37.50;62.20;;;;;;5393882;26;20126;-65
2024/04/15 03:42:01;;;;;;;12.18;5.65;;;37.30;61.40;;;;;;5394288;26;20432;-62
2024/04/15 03:44:28;;;;;;;6.03;4.10;;;37.10;61.80;;;;;;5394770;26;20065;-62
2024/04/15 03:46:55;;;;;;;6.30;4.75;;;37.20;61.70;;;;;;5393816;26;19999;-61
2024/04/15 03:49:23;;;;;;;10.68;5.40;;;37.90;61.70;;;;;;5374103;26;20016;-62
2024/04/15 03:51:50;;;;;;;9.73;4.53;;;38.30;61.50;;;;;;5387074;26;19999;-63
2024/04/15 03:54:17;;;;;;;8.73;4.30;;;38.60;61.40;;;;;;5393159;26;19999;-64
2024/04/15 03:56:44;;;;;;;6.55;4.00;;;38.70;59.80;;;;;;5394117;26;20035;-63
2024/04/15 03:59:12;;;;;;;8.88;4.30;;;38.50;60.00;;;;;;5361830;26;20475;-62
2024/04/15 04:01:39;;;;;;;9.23;3.83;;;38.80;60.00;;;;;;5375290;26;20011;-65
2024/04/15 04:04:06;;;;;;;12.20;4.15;;;39.10;59.70;;;;;;5402389;26;20007;-64
2024/04/15 04:06:34;;;;;;;7.40;3.78;;;39.30;59.30;;;;;;5394398;26;20008;-63
2024/04/15 04:09:01;;;;;;;6.57;3.47;;;39.30;59.70;;;;;;5394021;26;20200;-63
2024/04/15 04:11:28;;;;;;;6.07;3.05;;;39.70;58.80;;;;;;5368932;26;20000;-63
2024/04/15 04:13:56;;;;;;;4.68;3.30;;;39.40;59.80;;;;;;5376405;26;20000;-62
2024/04/15 04:16:23;;;;;;;6.53;3.33;;;39.70;59.70;;;;;;5429653;26;20007;-62
2024/04/15 04:18:50;;;;;;;8.95;3.95;;;39.70;59.80;;;;;;5432825;26;20064;-62
2024/04/15 04:21:18;;;;;;;7.85;3.60;;;39.60;60.30;;;;;;5393638;26;19996;-63
2024/04/15 04:23:45;;;;;;;7.18;3.25;;;39.70;60.50;;;;;;5381568;26;20471;-64
2024/04/15 04:26:12;;;;;;;5.68;3.30;;;39.90;59.80;;;;;;5384815;26;20458;-64
2024/04/15 04:28:40;;;;;;;4.45;2.97;;;39.60;61.20;;;;;;5388077;26;20188;-66
2024/04/15 04:31:07;;;;;;;7.03;3.13;;;39.40;60.20;;;;;;5380747;26;20098;-66
2024/04/15 04:33:34;;;;;;;7.20;3.50;;;38.90;59.80;;;;;;5376775;26;20044;-64
2024/04/15 04:36:02;;;;;;;6.38;3.58;;;38.10;60.70;;;;;;5388494;26;20015;-63
2024/04/15 04:38:29;;;;;;;4.60;2.83;;;37.60;60.60;;;;;;5385131;26;20459;-63
2024/04/15 04:40:57;;;;;;;7.22;3.22;;;36.90;61.80;;;;;;5383369;26;20355;-63
2024/04/15 04:43:25;;;;;;;9.90;4.22;;;36.00;63.10;;;;;;5383394;26;20402;-63
2024/04/15 04:45:52;;;;;;;8.60;3.80;;;35.30;64.30;;;;;;5384430;26;20019;-65
2024/04/15 04:48:20;;;;;;;6.35;2.85;;;34.50;65.30;;;;;;5408966;26;20031;-64
2024/04/15 04:50:48;;;;;;;6.32;3.35;;;33.60;66.80;;;;;;5431291;26;19999;-64
2024/04/15 04:53:15;;;;;;;7.22;3.42;;;33.00;68.20;;;;;;5407724;26;20015;-64
2024/04/15 04:55:43;;;;;;;7.13;3.38;;;33.10;69.40;;;;;;5373777;26;20048;-63
2024/04/15 04:58:10;;;;;;;7.25;3.55;;;33.10;68.40;;;;;;5362366;26;20004;-62
2024/04/15 05:00:37;;;;;;;5.93;3.67;;;33.20;68.70;;;;;;5389636;26;20204;-63
2024/04/15 05:03:05;;;;;;;7.85;3.25;;;33.50;68.50;;;;;;5378958;26;20463;-64
2024/04/15 05:05:34;;;;;;;8.40;3.17;;;33.70;69.20;;;;;;5389953;26;20014;-63
2024/04/15 05:08:02;;;;;;;5.68;3.40;;;33.90;68.00;;;;;;5393469;26;20072;-62
2024/04/15 05:10:29;;;;;;;10.15;3.67;;;33.80;67.80;;;;;;5370872;26;20011;-64
2024/04/15 05:12:56;;;;;;;5.75;3.50;;;33.50;69.00;;;;;;5395309;26;20073;-63
2024/04/15 05:15:24;;;;;;;6.20;3.20;;;33.40;69.70;;;;;;5393315;26;20014;-64
2024/04/15 05:17:51;;;;;;;9.82;4.00;;;33.00;69.80;;;;;;5388832;26;19999;-64
2024/04/15 05:20:18;;;;;;;6.10;3.35;;;32.60;71.80;;;;;;5398130;26;19995;-62
2024/04/15 05:22:46;;;;;;;5.97;3.13;;;32.40;71.60;;;;;;5389124;26;20798;-62
2024/04/15 05:25:13;;;;;;;7.47;3.35;;;32.30;70.90;;;;;;5396481;26;20065;-63
2024/04/15 05:27:40;;;;;;;6.47;3.45;;;32.60;71.60;;;;;;5390971;26;19999;-65
2024/04/15 05:30:08;;;;;;;6.63;3.20;;;33.00;71.10;;;;;;5377170;26;20001;-63
2024/04/15 05:32:36;;;;;;;5.85;2.72;;;34.00;69.10;;;;;;5419437;26;20076;-62
2024/04/15 05:35:03;;;;;;;7.95;3.15;;;34.40;69.70;;;;;;5381433;26;20182;-66
2024/04/15 05:37:30;;;;;;;7.82;3.47;;;34.40;68.80;;;;;;5393819;26;19995;-65
2024/04/15 05:39:58;;;;;;;7.80;3.80;;;34.10;69.90;;;;;;5395171;26;20000;-61
2024/04/15 05:42:25;;;;;;;7.47;3.00;;;33.80;71.30;;;;;;5395437;26;19999;-63
2024/04/15 05:44:53;;;;;;;6.55;3.10;;;33.20;70.20;;;;;;5390445;26;19996;-62
2024/04/15 05:47:20;;;;;;;9.50;3.50;;;32.70;71.80;;;;;;5388070;26;19999;-62
2024/04/15 05:49:48;;;;;;;10.40;3.30;;;33.00;71.60;;;;;;5386188;26;20006;-67
2024/04/15 05:52:15;;;;;;;5.78;3.08;;;33.00;69.80;;;;;;5398907;26;20368;-64
2024/04/15 05:54:42;;;;;;;4.05;3.10;;;33.30;71.60;;;;;;5395411;26;20011;-65
2024/04/15 05:57:10;;;;;;;4.88;3.20;;;33.40;70.60;;;;;;5377029;26;20361;-65
2024/04/15 05:59:37;;;;;;;5.43;2.88;;;34.20;69.50;;;;;;5389809;26;20000;-65
2024/04/15 06:02:04;;;;;;;7.13;3.10;;;35.00;68.40;;;;;;5394739;26;19995;-64
2024/04/15 06:04:35;;;;;;;6.40;2.92;;;35.20;67.00;;;;;;5389067;26;19999;-63
2024/04/15 06:07:05;;;;;;;5.93;3.30;;;35.50;67.70;;;;;;5390256;26;20344;-64
2024/04/15 06:09:36;;;;;;;6.82;3.17;;;36.20;66.90;;;;;;5405580;26;20002;-63
2024/04/15 06:12:04;;;;;;;6.72;3.03;;;36.00;66.70;;;;;;5415292;26;20088;-64
2024/04/15 06:14:31;;;;;;;6.20;3.40;;;36.00;66.50;;;;;;5398777;26;19999;-62
2024/04/15 06:17:00;;;;;;;6.82;3.25;;;35.70;66.70;;;;;;5386334;26;20000;-65
2024/04/15 06:19:28;;;;;;;6.75;2.67;;;34.40;68.50;;;;;;5400656;26;20011;-64
2024/04/15 06:21:55;;;;;;;6.50;3.00;;;33.50;69.70;;;;;;5385521;26;20095;-63
2024/04/15 06:24:22;;;;;;;6.63;3.38;;;32.40;71.60;;;;;;5392702;26;20028;-64
2024/04/15 06:26:50;;;;;;;6.35;2.72;;;32.10;74.10;;;;;;5386443;26;20008;-63
2024/04/15 06:29:17;;;;;;;4.38;2.58;;;31.80;73.00;;;;;;5398608;26;21832;-65
2024/04/15 06:31:44;;;;;;;7.85;3.22;;;31.50;72.70;;;;;;5393567;26;20019;-64
2024/04/15 06:34:12;;;;;;;5.47;2.80;;;31.30;74.40;;;;;;5397205;26;20043;-64
2024/04/15 06:36:39;;;;;;;6.65;3.30;;;31.10;75.10;;;;;;5395098;26;20035;-63
2024/04/15 06:39:07;;;;;;;5.63;3.10;;;30.60;76.40;;;;;;5397000;26;19999;-64
2024/04/15 06:41:34;;;;;;;6.47;3.40;;;29.70;77.70;;;;;;5401020;26;20010;-64
2024/04/15 06:44:01;;;;;;;7.72;3.35;;;29.00;79.60;;;;;;5394359;26;20403;-64
2024/04/15 06:46:29;;;;;;;6.47;3.50;;;28.50;79.60;;;;;;5390423;26;20015;-66
2024/04/15 06:48:57;;;;;;;8.30;3.33;;;28.40;81.10;;;;;;5393806;26;20003;-63
2024/04/15 06:51:25;;;;;;;8.05;3.72;;;28.20;81.50;;;;;;5398078;26;20004;-64
2024/04/15 06:53:52;;;;;;;6.55;3.30;;;27.80;82.60;;;;;;5395765;26;19999;-65
2024/04/15 06:56:21;;;;;;;8.85;3.80;;;27.40;83.80;;;;;;5397518;26;20007;-65
2024/04/15 06:58:48;;;;;;;6.63;4.22;;;26.80;86.00;;;;;;5393211;26;20438;-67
2024/04/15 07:01:15;;;;;;;6.40;3.80;;;26.30;86.90;;;;;;5395310;26;20010;-64
2024/04/15 07:03:43;;;;;;;4.50;3.58;;;25.90;88.80;;;;;;5395143;26;20082;-65
2024/04/15 07:06:10;;;;;;;6.47;4.28;;;25.50;90.10;;;;;;5389911;26;20084;-64
2024/04/15 07:08:38;;;;;;;8.18;3.38;;;25.00;91.10;;;;;;5419322;26;20010;-63
2024/04/15 07:11:06;;;;;;;7.22;3.83;;;24.50;91.90;;;;;;5407520;26;20316;-63
2024/04/15 07:13:33;;;;;;;9.32;4.43;;;24.30;92.90;;;;;;5400430;26;20090;-67
2024/04/15 07:16:00;;;;;;;5.15;4.00;;;24.00;95.30;;;;;;5393927;26;20004;-64
2024/04/15 07:18:28;;;;;;;9.35;4.32;;;23.90;95.90;;;;;;5398219;26;20340;-64
2024/04/15 07:20:55;;;;;;;8.43;4.53;;;23.70;96.50;;;;;;5394432;26;20004;-66
2024/04/15 07:23:23;;;;;;;6.82;4.22;;;23.60;97.70;;;;;;5394087;26;20007;-65
2024/04/15 07:25:59;;;;;;;5.18;4.30;;;23.50;98.80;;;;;;5386844;26;20094;-63
2024/04/15 07:28:27;;;;;;;7.00;4.55;;;23.40;99.30;;;;;;5385699;26;20022;-65
2024/04/15 07:31:04;;;;;;;5.15;4.07;;;23.30;99.90;;;;;;5391390;26;20464;-62
2024/04/15 07:33:31;;;;;;;7.88;4.70;;;23.20;99.90;;;;;;5363924;26;19996;-65
2024/04/15 07:36:00;;;;;;;8.82;5.45;;;23.00;99.90;;;;;;5394976;26;19999;-66
2024/04/15 07:38:27;;;;;;;10.65;5.25;;;22.80;99.90;;;;;;5398337;26;20004;-64
2024/04/15 07:40:58;;;;;;;6.20;4.85;;;22.90;99.90;;;;;;5394864;26;20096;-65
2024/04/15 07:43:26;;;;;;;8.13;5.15;;;22.80;99.90;;;;;;5397756;26;19996;-63
2024/04/15 07:45:53;;;;;;;14.75;6.85;;;22.70;99.90;;;;;;5393817;26;20129;-65
2024/04/15 07:48:20;;;;;;;11.10;6.97;;;22.60;99.90;;;;;;5397871;26;20451;-65
2024/04/15 07:50:48;;;;;;;7.85;6.07;;;22.50;99.90;;;;;;5386679;26;20000;-67
2024/04/15 07:53:15;;;;;;;10.02;5.50;;;22.40;99.90;;;;;;5378869;26;20014;-64
2024/04/15 07:55:47;;;;;;;8.90;5.35;;;22.40;99.90;;;;;;5379449;26;20011;-64
2024/04/15 07:58:14;;;;;;;8.55;5.35;;;22.20;99.90;;;;;;5388312;26;20455;-65
2024/04/15 08:00:43;;;;;;;10.15;5.22;;;22.20;99.90;;;;;;5398170;26;20487;-66
2024/04/15 08:03:11;;;;;;;7.55;5.68;;;22.10;99.90;;;;;;5382748;26;20011;-64
2024/04/15 08:05:38;;;;;;;9.73;5.82;;;22.10;99.90;;;;;;5389502;26;20032;-66
2024/04/15 08:08:06;;;;;;;7.28;5.63;;;22.00;99.90;;;;;;5394145;26;20006;-64
2024/04/15 08:10:34;;;;;;;9.95;5.90;;;21.90;99.90;;;;;;5382988;26;19999;-64
2024/04/15 08:13:02;;;;;;;8.32;5.20;;;21.90;99.90;;;;;;5379412;26;20507;-65
2024/04/15 08:15:31;;;;;;;8.60;4.93;;;21.90;99.90;;;;;;5378441;26;19996;-63
2024/04/15 08:18:00;;;;;;;11.85;5.30;;;21.80;99.90;;;;;;5394098;26;20007;-67
2024/04/15 08:20:27;;;;;;;6.78;4.57;;;21.90;99.90;;;;;;5397010;26;20008;-65
2024/04/15 08:22:54;;;;;;;10.85;6.13;;;21.80;99.90;;;;;;5396360;26;20447;-65
2024/04/15 08:25:22;;;;;;;8.13;5.60;;;21.80;99.90;;;;;;5396142;26;19996;-64
2024/04/15 08:27:49;;;;;;;9.93;5.53;;;21.70;99.90;;;;;;5378539;26;20011;-67
2024/04/15 08:30:16;;;;;;;13.15;5.93;;;21.70;99.90;;;;;;5394505;26;19992;-62
2024/04/15 08:32:43;;;;;;;8.23;5.13;;;21.60;99.90;;;;;;5395737;26;20014;-65
2024/04/15 08:35:11;;;;;;;7.13;6.13;;;21.60;99.90;;;;;;5394413;26;20052;-66
2024/04/15 08:37:38;;;;;;;10.35;5.43;;;21.50;99.90;;;;;;5397489;26;20003;-65
2024/04/15 08:40:06;;;;;;;7.82;5.40;;;21.40;99.90;;;;;;5377247;26;20012;-69
2024/04/15 08:42:53;;;;;;;9.35;5.45;;;21.40;99.90;;;;;;5361205;26;20000;-69
2024/04/15 08:45:24;;;;;;;8.45;5.20;;;21.40;99.90;;;;;;5385980;26;20008;-68
2024/04/15 08:47:53;;;;;;;9.15;5.63;;;21.30;99.90;;;;;;5397973;26;19992;-68
2024/04/15 08:50:21;;;;;;;9.07;5.50;;;21.30;99.90;;;;;;5394823;26;19995;-67
2024/04/15 08:52:54;;;;;;;7.45;5.43;;;21.30;99.90;;;;;;5381211;26;20005;-68
2024/04/15 08:55:25;;;;;;;9.02;5.43;;;21.20;99.90;;;;;;5382594;26;20451;-67
2024/04/15 08:57:54;;;;;;;10.07;5.40;;;21.20;99.90;;;;;;5367406;26;20004;-66
2024/04/15 09:00:22;;;;;;;9.55;6.30;;;21.10;99.90;;;;;;5369848;26;20477;-69
2024/04/15 09:02:52;;;;;;;9.80;6.10;;;21.00;99.90;;;;;;5365663;26;20000;-68
2024/04/15 09:05:19;;;;;;;9.18;6.30;;;21.00;99.90;;;;;;5361570;26;20101;-70
2024/04/15 09:07:49;;;;;;;10.00;5.82;;;21.00;99.90;;;;;;5365426;26;20004;-70
2024/04/15 09:10:16;;;;;;;8.73;5.53;;;20.90;99.90;;;;;;5362495;26;20063;-69
2024/04/15 09:12:45;;;;;;;14.27;7.18;;;20.90;99.90;;;;;;5382466;26;20007;-68
2024/04/15 09:15:14;;;;;;;9.80;6.63;;;20.80;99.90;;;;;;5373608;26;20003;-69
2024/04/15 09:17:42;;;;;;;10.05;6.35;;;20.80;99.90;;;;;;5386420;26;19996;-68
2024/04/15 09:20:10;;;;;;;10.38;5.68;;;20.80;99.90;;;;;;5375799;26;20083;-68
2024/04/15 09:22:38;;;;;;;15.73;6.47;;;20.80;99.90;;;;;;5400209;26;20216;-68
2024/04/15 09:25:06;;;;;;;8.57;5.57;;;20.70;99.90;;;;;;5387913;26;20015;-69
2024/04/15 09:27:34;;;;;;;7.55;5.88;;;20.70;99.90;;;;;;5378314;26;20003;-67
2024/04/15 09:30:01;;;;;;;8.20;6.40;;;20.70;99.90;;;;;;5399997;26;19996;-69
2024/04/15 09:32:29;;;;;;;9.60;6.40;;;20.60;99.90;;;;;;5370698;26;20391;-68
2024/04/15 09:35:04;;;;;;;11.13;7.05;;;20.60;99.90;;;;;;5387761;26;20448;-69
2024/04/15 09:37:34;;;;;;;17.75;10.90;;;20.70;99.90;;;;;;5363057;26;19996;-68
2024/04/15 09:40:04;;;;;;;17.77;12.52;;;20.70;99.90;;;;;;5365118;26;20011;-69
2024/04/15 09:42:34;;;;;;;23.50;12.20;;;20.60;99.90;;;;;;5369182;26;20000;-68
2024/04/15 09:45:01;;;;;;;16.48;10.05;;;20.70;99.90;;;;;;5364766;26;20000;-69
2024/04/15 09:47:30;;;;;;;19.05;12.73;;;20.70;99.90;;;;;;5362493;26;20452;-66
2024/04/15 09:49:57;;;;;;;24.35;14.52;;;20.60;99.90;;;;;;5364251;26;20000;-66
2024/04/15 09:52:31;;;;;;;23.02;17.38;;;20.70;99.90;;;;;;5361700;26;20000;-67
2024/04/15 09:55:11;;;;;;;26.83;17.40;;;20.60;99.90;;;;;;5364564;26;20007;-67
2024/04/15 09:57:42;;;;;;;24.70;16.50;;;20.60;99.90;;;;;;5399567;26;20007;-68
2024/04/15 10:00:18;;;;;;;16.42;13.13;;;20.50;99.90;;;;;;5396804;26;20011;-68
2024/04/15 10:03:11;;;;;;;19.80;11.10;;;20.50;99.90;;;;;;5386974;26;20316;-67
2024/04/15 10:05:41;;;;;;;19.63;10.80;;;20.40;99.90;;;;;;5363407;26;20024;-67
2024/04/15 10:08:09;;;;;;;12.13;8.77;;;20.40;99.90;;;;;;5365307;26;20018;-68
2024/04/15 10:10:39;;;;;;;13.25;9.48;;;20.40;99.90;;;;;;5390689;26;20085;-67
2024/04/15 10:13:07;;;;;;;13.30;7.90;;;20.30;99.90;;;;;;5395801;26;20004;-68
2024/04/15 10:15:35;;;;;;;10.43;7.15;;;20.30;99.90;;;;;;5379157;26;20864;-68
2024/04/15 10:18:08;;;;;;;11.65;9.52;;;20.30;99.90;;;;;;5371487;26;20005;-68
2024/04/15 10:20:41;;;;;;;15.05;8.38;;;20.30;99.90;;;;;;5377844;26;20240;-68
2024/04/15 10:23:14;;;;;;;12.75;9.13;;;20.20;99.90;;;;;;5399591;26;20007;-67
2024/04/15 10:25:42;;;;;;;11.57;9.80;;;20.20;99.90;;;;;;5393737;26;20457;-67
2024/04/15 10:28:11;;;;;;;13.18;9.20;;;20.20;99.90;;;;;;5391189;26;20015;-69
2024/04/15 10:30:40;;;;;;;15.75;8.40;;;20.10;99.90;;;;;;5361703;26;20081;-67
2024/04/15 10:33:13;;;;;;;12.10;8.55;;;20.10;99.90;;;;;;5390196;26;20853;-67
2024/04/15 10:35:40;;;;;;;;;;;20.10;99.90;;;;;;5378399;26;20003;-66
2024/04/15 10:38:09;;;;;;;15.32;8.82;;;20.00;99.90;;;;;;5376600;26;19926;-68
2024/04/15 10:40:44;;;;;;;11.57;8.32;;;20.00;99.90;;;;;;5359499;26;19999;-68
2024/04/15 10:43:21;;;;;;;12.55;8.55;;;19.80;99.90;;;;;;5364239;26;19996;-67
2024/04/15 10:45:49;;;;;;;9.95;8.45;;;19.80;99.90;;;;;;5381138;26;20027;-67
2024/04/15 10:48:17;;;;;;;10.82;7.18;;;19.80;99.90;;;;;;5388891;26;20015;-66
2024/04/15 10:50:44;;;;;;;9.48;7.55;;;19.80;99.90;;;;;;5432748;26;20007;-67
2024/04/15 10:53:12;;;;;;;12.32;9.27;;;19.70;99.90;;;;;;5463869;26;20010;-67
2024/04/15 10:55:39;;;;;;;9.38;7.65;;;19.70;99.90;;;;;;5396913;26;20344;-70
2024/04/15 10:58:11;;;;;;;11.80;9.13;;;19.60;99.90;;;;;;5398357;26;20015;-67
2024/04/15 11:00:43;;;;;;;12.20;9.43;;;19.70;99.90;;;;;;5395401;26;20000;-67
2024/04/15 11:03:11;;;;;;;10.00;8.75;;;19.60;99.90;;;;;;5398317;26;20031;-68
2024/04/15 11:05:38;;;;;;;10.60;8.45;;;19.60;99.90;;;;;;5396030;26;20032;-68
2024/04/15 11:08:08;;;;;;;10.88;7.88;;;19.60;99.90;;;;;;5398575;26;20000;-68
2024/04/15 11:10:37;;;;;;;10.65;7.28;;;19.60;99.90;;;;;;5362802;26;20093;-70
2024/04/15 11:13:10;;;;;;;10.27;7.72;;;19.60;99.90;;;;;;5387682;26;20463;-66
2024/04/15 11:15:39;;;;;;;8.57;7.63;;;19.60;99.90;;;;;;5396922;26;20007;-68
2024/04/15 11:18:14;;;;;;;9.10;7.43;;;19.60;99.90;;;;;;5397314;26;20006;-69
2024/04/15 11:20:43;;;;;;;11.80;7.88;;;19.60;99.90;;;;;;5388071;26;20332;-68
2024/04/15 11:23:11;;;;;;;11.57;8.07;;;19.60;99.90;;;;;;5362860;26;19996;-69
2024/04/15 11:25:39;;;;;;;13.18;7.68;;;19.60;99.90;;;;;;5360532;26;20012;-67
2024/04/15 11:28:08;;;;;;;16.52;10.88;;;19.50;99.90;;;;;;5363385;26;20024;-69
2024/04/15 11:30:36;;;;;;;11.77;9.77;;;19.60;99.90;;;;;;5369686;26;20032;-67
2024/04/15 11:33:04;;;;;;;13.73;9.38;;;19.50;99.90;;;;;;5397357;26;20014;-68
2024/04/15 11:35:32;;;;;;;14.05;11.32;;;19.40;99.90;;;;;;5396514;26;19995;-68
2024/04/15 11:38:02;;;;;;;10.68;9.63;;;19.40;99.90;;;;;;5396295;26;20006;-69
2024/04/15 11:40:30;;;;;;;11.50;8.88;;;19.20;99.90;;;;;;5366398;26;20019;-68
2024/04/15 11:42:59;;;;;;;9.93;7.88;;;19.20;99.90;;;;;;5376599;26;20018;-70
2024/04/15 11:45:27;;;;;;;10.27;8.38;;;19.20;99.90;;;;;;5380775;26;20014;-69
2024/04/15 11:47:56;;;;;;;9.63;8.40;;;19.10;99.90;;;;;;5378804;26;20437;-68
2024/04/15 11:50:23;;;;;;;9.20;7.97;;;19.10;99.90;;;;;;5383226;26;20082;-69
2024/04/15 11:52:51;;;;;;;9.77;8.50;;;19.00;99.90;;;;;;5390905;26;20525;-69
2024/04/15 11:55:20;;;;;;;10.20;8.98;;;19.00;99.90;;;;;;5396445;26;20039;-69
2024/04/15 11:57:49;;;;;;;10.88;8.30;;;18.90;99.90;;;;;;5393195;26;20003;-69
2024/04/15 12:00:17;;;;;;;15.10;9.35;;;18.90;99.90;;;;;;5379114;26;20068;-68
2024/04/15 12:02:47;;;;;;;14.15;9.10;;;18.80;99.90;;;;;;5378827;26;20004;-69
2024/04/15 12:05:15;;;;;;;10.32;8.65;;;18.80;99.90;;;;;;5397414;26;20004;-68
2024/04/15 12:07:43;;;;;;;16.15;9.65;;;18.70;99.90;;;;;;5395963;26;20016;-69
2024/04/15 12:10:11;;;;;;;12.60;10.23;;;18.70;99.90;;;;;;5394175;26;20004;-68
2024/04/15 12:12:39;;;;;;;16.98;12.05;;;18.70;99.90;;;;;;5381637;26;20073;-68
2024/04/15 12:15:10;;;;;;;16.88;12.73;;;18.70;99.90;;;;;;5376612;26;20000;-68
2024/04/15 12:17:38;;;;;;;11.15;9.95;;;18.60;99.90;;;;;;5381362;26;20040;-68
2024/04/15 12:20:06;;;;;;;22.05;11.60;;;18.50;99.90;;;;;;5375805;26;20004;-68
2024/04/15 12:22:33;;;;;;;16.17;11.25;;;18.50;99.90;;;;;;5376039;26;20106;-68
2024/04/15 12:25:01;;;;;;;10.95;9.93;;;18.50;99.90;;;;;;5376526;26;20000;-68
2024/04/15 12:27:28;;;;;;;11.55;9.52;;;18.40;99.90;;;;;;5380330;26;20003;-67
2024/04/15 12:29:56;;;;;;;12.70;9.00;;;18.50;99.90;;;;;;5380057;26;20348;-66
2024/04/15 12:32:23;;;;;;;11.93;10.48;;;18.40;99.90;;;;;;5380808;26;20000;-69
2024/04/15 12:34:50;;;;;;;10.35;9.30;;;18.30;99.90;;;;;;5365976;26;20000;-68
2024/04/15 12:37:18;;;;;;;10.45;9.15;;;18.30;99.90;;;;;;5388980;26;20084;-68
2024/04/15 12:39:46;;;;;;;10.25;9.35;;;18.20;99.90;;;;;;5397832;26;20065;-68
2024/04/15 12:42:14;;;;;;;16.65;11.32;;;18.20;99.90;;;;;;5399707;26;20006;-68
2024/04/15 12:44:41;;;;;;;12.63;10.25;;;18.20;99.90;;;;;;5399556;26;20332;-68
2024/04/15 12:47:09;;;;;;;10.32;9.27;;;18.20;99.90;;;;;;5399214;26;20014;-69